Time;durP1;ratioP1;P1;durP2;ratioP2;P2;SDS_P1;SDS_P2;PMS_P1;PMS_P2;Temp;Humidity;BMP_temperature;BMP_pressure;BME280_temperature;BME280_humidity;BME280_pressure;Samples;Min_cycle;Max_cycle;Signal;HPM_P1;HPM_P2
2022/05/28 00:01:21;;;;;;;0.00;0.00;;;;;;;16.23;51.48;102294.03;5053992;28;20036;-80
2022/05/28 00:03:51;;;;;;;0.00;0.00;;;;;;;16.17;50.97;102285.25;5053880;28;20116;-80
2022/05/28 00:06:20;;;;;;;0.00;0.00;;;;;;;16.14;51.89;102285.28;5054094;28;20029;-80
2022/05/28 00:08:47;;;;;;;0.00;0.00;;;;;;;16.20;51.20;102288.75;5054142;28;20037;-79
2022/05/28 00:11:32;;;;;;;0.35;0.35;;;;;;;16.19;51.83;102287.88;5053422;28;20032;-80
2022/05/28 00:13:59;;;;;;;0.00;0.00;;;;;;;16.17;51.89;102287.91;5054273;28;20021;-80
2022/05/28 00:16:25;;;;;;;0.00;0.00;;;;;;;16.13;52.38;102288.00;5053960;28;20033;-80
2022/05/28 00:18:52;;;;;;;0.10;0.10;;;;;;;16.11;52.52;102277.34;5054017;28;20033;-79
2022/05/28 00:21:20;;;;;;;1.58;1.48;;;;;;;16.04;52.56;102273.03;5053325;28;20033;-79
2022/05/28 00:23:46;;;;;;;0.00;0.00;;;;;;;16.05;52.51;102282.81;5053570;28;20467;-80
2022/05/28 00:26:14;;;;;;;0.00;0.00;;;;;;;16.16;52.07;102269.19;5053781;28;20066;-80
2022/05/28 00:28:40;;;;;;;1.20;1.20;;;;;;;16.11;52.10;102272.00;5053259;28;20028;-79
2022/05/28 00:31:07;;;;;;;0.70;0.70;;;;;;;16.09;52.58;102275.63;5051255;28;20498;-80
2022/05/28 00:33:34;;;;;;;0.00;0.00;;;;;;;16.11;52.57;102274.66;5052340;28;20025;-80
2022/05/28 00:36:03;;;;;;;0.00;0.00;;;;;;;16.08;52.36;102274.72;5052707;28;20079;-80
2022/05/28 00:38:29;;;;;;;0.00;0.00;;;;;;;16.09;52.37;102279.16;5053151;28;20084;-79
2022/05/28 00:40:58;;;;;;;0.38;0.38;;;;;;;16.04;52.65;102278.38;5055643;28;20495;-80
2022/05/28 00:43:27;;;;;;;0.00;0.00;;;;;;;16.07;52.53;102272.06;5056000;28;20025;-79
2022/05/28 00:46:05;;;;;;;0.00;0.00;;;;;;;15.89;53.03;102274.22;5056138;28;20040;-79
2022/05/28 00:48:35;;;;;;;0.10;0.10;;;;;;;15.92;53.60;102281.28;5056344;28;20098;-80
2022/05/28 00:51:07;;;;;;;0.10;0.10;;;;;;;15.95;53.67;102279.44;5055358;28;20040;-80
2022/05/28 00:53:34;;;;;;;0.08;0.08;;;;;;;15.89;53.71;102278.66;5056181;28;20029;-80
2022/05/28 00:56:04;;;;;;;0.00;0.00;;;;;;;15.82;54.31;102285.91;5056507;28;20110;-80
2022/05/28 00:58:30;;;;;;;0.00;0.00;;;;;;;15.81;54.23;102285.03;5056356;28;20025;-79
2022/05/28 01:00:57;;;;;;;0.10;0.10;;;;;;;15.79;54.50;102284.16;5055893;28;20505;-79
2022/05/28 01:03:34;;;;;;;0.00;0.00;;;;;;;15.73;55.22;102296.75;5056517;28;20045;-80
2022/05/28 01:06:27;;;;;;;0.10;0.10;;;;;;;15.82;55.06;102278.78;5056424;28;20423;-79
2022/05/28 01:09:03;;;;;;;0.00;0.00;;;;;;;15.79;55.37;102284.16;5057186;28;20026;-79
2022/05/28 01:11:44;;;;;;;0.10;0.10;;;;;;;15.69;55.99;102282.56;5056014;28;20039;-79
2022/05/28 01:14:25;;;;;;;0.32;0.32;;;;;;;15.74;55.72;102279.78;5056434;28;20052;-79
2022/05/28 01:16:59;;;;;;;0.95;0.95;;;;;;;15.72;55.10;102276.28;5056872;28;20107;-79
2022/05/28 01:19:59;;;;;;;0.10;0.10;;;;;;;15.67;56.22;102273.69;5056735;28;20055;-79
2022/05/28 01:28:22;;;;;;;0.10;0.10;;;;;;;15.49;55.83;102275.78;5111240;27;20384;-79
2022/05/28 01:30:49;;;;;;;0.10;0.10;;;;;;;15.49;56.66;102285.59;5113974;22;20162;-77
2022/05/28 01:33:17;;;;;;;0.30;0.30;;;;;;;15.45;56.86;102284.78;5074328;28;20029;-78
2022/05/28 01:35:45;;;;;;;0.00;0.00;;;;;;;15.43;56.64;102286.59;5074422;28;20032;-78
2022/05/28 01:38:13;;;;;;;1.17;0.68;;;;;;;15.47;56.32;102277.59;5073940;28;20036;-78
2022/05/28 01:40:41;;;;;;;0.08;0.08;;;;;;;15.34;57.73;102273.41;5079389;28;20107;-77
2022/05/28 01:43:11;;;;;;;0.10;0.10;;;;;;;15.39;57.46;102267.97;5093889;28;20088;-78
2022/05/28 01:45:41;;;;;;;0.10;0.10;;;;;;;15.41;57.06;102266.16;5094685;28;20407;-78
2022/05/28 01:48:08;;;;;;;0.00;0.00;;;;;;;15.35;57.49;102262.69;5094261;28;20036;-78
2022/05/28 01:50:42;;;;;;;0.10;0.10;;;;;;;15.35;57.40;102265.34;5094537;28;20032;-78
2022/05/28 01:53:11;;;;;;;0.90;0.52;;;;;;;15.31;57.56;102268.97;5093757;28;20395;-78
2022/05/28 01:55:42;;;;;;;0.17;0.17;;;;;;;15.28;57.65;102270.84;5093524;28;20050;-78
2022/05/28 01:58:08;;;;;;;0.00;0.00;;;;;;;15.26;58.07;102262.81;5094152;28;20035;-78
2022/05/28 02:00:34;;;;;;;0.00;0.00;;;;;;;15.22;58.35;102270.94;5094030;28;20032;-78
2022/05/28 02:03:02;;;;;;;0.00;0.00;;;;;;;15.28;57.32;102274.38;5093874;28;20027;-78
2022/05/28 02:05:28;;;;;;;0.05;0.05;;;;;;;15.26;57.46;102268.16;5094342;28;20032;-78
2022/05/28 02:07:54;;;;;;;0.30;0.30;;;;;;;15.23;57.67;102267.31;5094116;28;20047;-78
2022/05/28 02:10:22;;;;;;;0.00;0.00;;;;;;;15.16;58.23;102259.41;5093519;28;20028;-77
2022/05/28 02:13:20;;;;;;;0.10;0.10;;;;;;;15.20;58.67;102263.81;5092798;28;20047;-77
2022/05/28 02:15:53;;;;;;;4.18;0.80;;;;;;;15.17;58.49;102258.53;5092531;28;20031;-78
2022/05/28 02:18:45;;;;;;;0.00;0.00;;;;;;;15.15;58.64;102268.38;5093168;28;20028;-78
2022/05/28 02:21:23;;;;;;;0.10;0.10;;;;;;;15.13;58.19;102270.16;5092729;28;20024;-78
2022/05/28 02:26:33;;;;;;;0.00;0.00;;;;;;;14.99;58.41;102258.81;5067661;28;20390;-76
2022/05/28 02:29:01;;;;;;;0.10;0.10;;;;;;;14.95;59.07;102262.44;5068133;28;20036;-77
2022/05/28 02:31:31;;;;;;;0.00;0.00;;;;;;;14.94;59.14;102266.03;5065803;28;20487;-76
2022/05/28 02:33:57;;;;;;;0.00;0.00;;;;;;;14.82;58.94;102261.78;5067801;28;20039;-76
2022/05/28 02:36:24;;;;;;;0.10;0.10;;;;;;;14.79;59.62;102259.13;5067870;28;20032;-76
2022/05/28 02:38:51;;;;;;;0.10;0.10;;;;;;;14.79;59.83;102257.38;5067512;28;20100;-76
2022/05/28 02:41:17;;;;;;;2.63;1.95;;;;;;;14.81;58.57;102255.53;5067526;28;20025;-76
2022/05/28 02:43:44;;;;;;;0.08;0.08;;;;;;;14.79;59.39;102262.69;5067762;28;20037;-77
2022/05/28 02:46:10;;;;;;;0.00;0.00;;;;;;;14.77;59.13;102258.28;5067592;28;20513;-76
2022/05/28 02:48:38;;;;;;;0.00;0.00;;;;;;;14.76;59.07;102252.06;5067687;28;20075;-76
2022/05/28 02:51:06;;;;;;;2.05;0.77;;;;;;;14.72;59.01;102250.34;5066958;28;20092;-76
2022/05/28 02:53:32;;;;;;;0.00;0.00;;;;;;;14.76;59.42;102254.72;5067502;28;20517;-76
2022/05/28 02:55:59;;;;;;;0.00;0.00;;;;;;;14.74;58.86;102259.19;5067528;28;20021;-76
2022/05/28 02:58:26;;;;;;;0.00;0.00;;;;;;;14.65;59.92;102248.66;5067381;28;20394;-76
2022/05/28 03:00:52;;;;;;;0.00;0.00;;;;;;;14.71;59.33;102256.59;5066484;28;20585;-77
2022/05/28 03:03:19;;;;;;;0.10;0.10;;;;;;;14.68;59.36;102254.84;5067225;28;20108;-76
2022/05/28 03:05:47;;;;;;;0.00;0.00;;;;;;;14.64;59.19;102262.88;5067014;28;20024;-77
2022/05/28 03:08:13;;;;;;;0.15;0.15;;;;;;;14.63;59.07;102266.44;5067130;28;20487;-77
2022/05/28 03:10:39;;;;;;;0.00;0.00;;;;;;;14.61;58.95;102262.94;5067025;28;20032;-76
2022/05/28 03:13:06;;;;;;;0.00;0.00;;;;;;;14.61;58.86;102263.78;5066979;28;20032;-78
2022/05/28 03:15:33;;;;;;;0.00;0.00;;;;;;;14.61;58.45;102268.25;5067280;28;20025;-77
2022/05/28 03:18:00;;;;;;;0.10;0.10;;;;;;;14.63;58.32;102266.44;5067188;28;20028;-77
2022/05/28 03:20:28;;;;;;;0.05;0.05;;;;;;;14.56;58.63;102269.19;5066917;28;20043;-77
2022/05/28 03:22:54;;;;;;;0.00;0.00;;;;;;;14.57;58.37;102262.09;5066774;28;20116;-77
2022/05/28 03:25:21;;;;;;;0.05;0.05;;;;;;;14.52;58.65;102270.16;5067015;28;20028;-77
2022/05/28 03:27:48;;;;;;;0.00;0.00;;;;;;;14.56;58.23;102273.66;5066533;28;20036;-77
2022/05/28 03:30:14;;;;;;;0.00;0.00;;;;;;;14.52;58.52;102270.16;5066582;28;20029;-77
2022/05/28 03:32:40;;;;;;;0.25;0.25;;;;;;;14.48;58.69;102276.44;5065423;28;20815;-76
2022/05/28 03:35:08;;;;;;;0.00;0.00;;;;;;;14.50;58.34;102277.28;5066149;28;20025;-77
2022/05/28 03:37:34;;;;;;;0.00;0.00;;;;;;;14.47;58.25;102280.00;5054086;28;20376;-76
2022/05/28 03:40:01;;;;;;;0.03;0.03;;;;;;;14.48;58.16;102279.09;5053267;28;20029;-77
2022/05/28 03:42:27;;;;;;;0.30;0.30;;;;;;;14.49;57.72;102274.63;5052822;28;20134;-77
2022/05/28 03:44:53;;;;;;;0.00;0.00;;;;;;;14.49;57.50;102270.19;5053325;28;20032;-77
2022/05/28 03:47:19;;;;;;;0.43;0.43;;;;;;;14.45;57.75;102284.44;5052890;28;20033;-77
2022/05/28 03:49:45;;;;;;;0.10;0.10;;;;;;;14.46;57.72;102280.88;5053139;28;20033;-77
2022/05/28 03:52:14;;;;;;;0.03;0.03;;;;;;;14.42;57.70;102283.59;5052353;28;20383;-76
2022/05/28 03:54:43;;;;;;;0.03;0.03;;;;;;;14.42;57.33;102289.84;5052974;28;20021;-77
2022/05/28 03:57:14;;;;;;;0.00;0.00;;;;;;;14.47;57.42;102288.00;5052890;28;20064;-76
2022/05/28 03:59:43;;;;;;;0.35;0.35;;;;;;;14.48;57.41;102279.09;5053532;28;20028;-77
2022/05/28 04:02:10;;;;;;;0.00;0.00;;;;;;;14.40;57.42;102286.31;5050907;28;20495;-76
2022/05/28 04:04:36;;;;;;;0.10;0.10;;;;;;;14.43;57.19;102290.72;5053015;28;20025;-77
2022/05/28 04:07:02;;;;;;;0.15;0.15;;;;;;;14.45;56.94;102292.47;5052972;28;20036;-76
2022/05/28 04:09:29;;;;;;;0.10;0.10;;;;;;;14.42;57.20;102295.19;5051718;28;20033;-77
2022/05/28 04:11:55;;;;;;;0.00;0.00;;;;;;;14.40;57.15;102294.31;5052794;28;20564;-77
2022/05/28 04:14:21;;;;;;;0.00;0.00;;;;;;;14.38;57.22;102289.00;5052722;28;20025;-76
2022/05/28 04:16:47;;;;;;;0.20;0.20;;;;;;;14.33;57.12;102292.59;5052465;28;20103;-76
2022/05/28 04:19:13;;;;;;;0.00;0.00;;;;;;;14.33;56.89;102296.19;5053026;28;20029;-77
2022/05/28 04:21:40;;;;;;;0.10;0.10;;;;;;;14.35;56.46;102298.81;5051886;28;20052;-76
2022/05/28 04:24:06;;;;;;;0.00;0.00;;;;;;;14.32;55.93;102307.75;5052727;28;20039;-77
2022/05/28 04:26:33;;;;;;;0.00;0.00;;;;;;;14.42;56.16;102300.50;5052559;28;20051;-77
2022/05/28 04:28:59;;;;;;;0.00;0.00;;;;;;;14.45;56.04;102305.78;5052361;28;20075;-77
2022/05/28 04:31:28;;;;;;;0.10;0.10;;;;;;;14.43;55.99;102298.72;5051402;28;20029;-76
2022/05/28 04:33:54;;;;;;;0.10;0.10;;;;;;;14.41;56.13;102306.75;5052270;28;20028;-76
2022/05/28 04:36:20;;;;;;;0.00;0.00;;;;;;;14.48;56.13;102307.53;5052190;28;20394;-76
2022/05/28 04:38:46;;;;;;;0.10;0.10;;;;;;;14.43;56.47;102307.63;5052169;28;20115;-76
2022/05/28 04:41:13;;;;;;;0.00;0.00;;;;;;;14.39;56.74;102308.53;5051210;28;20043;-76
2022/05/28 04:43:39;;;;;;;0.00;0.00;;;;;;;14.39;56.02;102308.53;5051974;28;20032;-77
2022/05/28 04:46:05;;;;;;;0.10;0.10;;;;;;;14.39;56.56;102309.44;5051838;28;20040;-76
2022/05/28 04:48:31;;;;;;;0.10;0.10;;;;;;;14.40;56.28;102312.97;5050877;28;20040;-76
2022/05/28 04:51:01;;;;;;;0.10;0.10;;;;;;;14.42;55.98;102307.59;5051279;28;20056;-76
2022/05/28 04:53:27;;;;;;;0.10;0.10;;;;;;;14.45;55.71;102315.59;5052090;28;20117;-76
2022/05/28 04:55:53;;;;;;;0.00;0.00;;;;;;;14.49;55.59;102310.19;5052392;28;20087;-75
2022/05/28 04:58:19;;;;;;;0.00;0.00;;;;;;;14.50;55.52;102311.06;5051471;28;20037;-76
2022/05/28 05:00:46;;;;;;;0.10;0.10;;;;;;;14.45;55.62;102310.25;5049522;28;20107;-76
2022/05/28 05:03:13;;;;;;;0.10;0.10;;;;;;;14.42;55.14;102318.28;5050060;28;20029;-76
2022/05/28 05:05:39;;;;;;;0.10;0.10;;;;;;;14.47;54.50;102320.00;5051569;28;20033;-76
2022/05/28 05:08:06;;;;;;;0.90;0.90;;;;;;;14.48;54.01;102316.44;5051499;28;20029;-76
2022/05/28 05:10:32;;;;;;;0.00;0.00;;;;;;;14.60;54.29;102314.50;5051504;28;20033;-76
2022/05/28 05:13:00;;;;;;;0.00;0.00;;;;;;;14.54;53.75;102321.69;5051015;28;20040;-76
2022/05/28 05:15:26;;;;;;;0.00;0.00;;;;;;;14.64;53.87;102324.22;5052012;28;20025;-76
2022/05/28 05:17:52;;;;;;;0.00;0.00;;;;;;;14.63;53.83;102330.44;5051549;28;20478;-76
2022/05/28 05:20:19;;;;;;;0.00;0.00;;;;;;;14.57;53.38;102318.09;5051478;28;20036;-76
2022/05/28 05:22:45;;;;;;;0.10;0.10;;;;;;;14.68;53.25;102318.00;5051001;28;20396;-76
2022/05/28 05:25:13;;;;;;;0.00;0.00;;;;;;;14.55;52.86;102323.47;5051573;28;20040;-76
2022/05/28 05:27:41;;;;;;;0.10;0.10;;;;;;;14.73;52.78;102316.16;5051269;28;20491;-75
2022/05/28 05:30:08;;;;;;;0.10;0.10;;;;;;;14.69;52.34;102320.63;5051908;28;20050;-76
2022/05/28 05:32:34;;;;;;;0.10;0.10;;;;;;;14.72;52.35;102325.03;5051331;28;20037;-75
2022/05/28 05:35:00;;;;;;;0.10;0.10;;;;;;;14.80;52.62;102328.47;5051370;28;20024;-76
2022/05/28 05:37:27;;;;;;;0.05;0.05;;;;;;;14.84;52.63;102331.97;5051322;28;20509;-76
2022/05/28 05:39:53;;;;;;;0.00;0.00;;;;;;;14.81;52.57;102330.25;5051304;28;20025;-76
2022/05/28 05:42:19;;;;;;;0.00;0.00;;;;;;;14.86;52.73;102332.84;5050009;28;20039;-76
2022/05/28 05:44:46;;;;;;;0.03;0.03;;;;;;;14.84;52.70;102340.88;5051211;28;20025;-76
2022/05/28 05:47:12;;;;;;;0.00;0.00;;;;;;;14.92;52.62;102342.56;5050852;28;20131;-76
2022/05/28 05:49:38;;;;;;;0.00;0.00;;;;;;;14.93;52.71;102345.22;5050901;28;20032;-76
2022/05/28 05:52:04;;;;;;;0.00;0.00;;;;;;;14.93;52.08;102341.63;5050086;28;20063;-76
2022/05/28 05:54:31;;;;;;;0.00;0.00;;;;;;;14.91;51.44;102341.66;5051024;28;20029;-76
2022/05/28 05:56:57;;;;;;;0.00;0.00;;;;;;;14.85;50.61;102347.09;5050584;28;20033;-76
2022/05/28 05:59:23;;;;;;;0.03;0.03;;;;;;;14.87;50.66;102351.50;5050970;28;20029;-76
2022/05/28 06:01:50;;;;;;;0.00;0.00;;;;;;;14.89;51.20;102351.47;5050511;28;20029;-76
2022/05/28 06:04:16;;;;;;;0.17;0.17;;;;;;;14.96;50.88;102344.28;5051467;28;20029;-76
2022/05/28 06:06:42;;;;;;;0.10;0.10;;;;;;;14.95;50.42;102339.84;5050659;28;20033;-76
2022/05/28 06:09:09;;;;;;;11.45;2.30;;;;;;;15.01;50.86;102348.63;5050459;28;20166;-76
2022/05/28 06:11:35;;;;;;;0.30;0.30;;;;;;;14.97;50.41;102349.59;5050187;28;20186;-76
2022/05/28 06:14:03;;;;;;;0.25;0.25;;;;;;;15.12;50.70;102350.28;5050889;28;20029;-76
2022/05/28 06:16:29;;;;;;;0.00;0.00;;;;;;;15.18;50.63;102348.41;5050707;28;20029;-76
2022/05/28 06:18:55;;;;;;;0.10;0.10;;;;;;;15.28;50.67;102350.94;5050564;28;20501;-76
2022/05/28 06:21:21;;;;;;;0.08;0.08;;;;;;;15.28;50.24;102350.94;5049928;28;20037;-75
2022/05/28 06:23:47;;;;;;;0.03;0.03;;;;;;;15.35;49.95;102353.47;5050316;28;20044;-76
2022/05/28 06:26:13;;;;;;;0.10;0.10;;;;;;;15.45;49.74;102364.91;5050495;28;20072;-76
2022/05/28 06:28:41;;;;;;;0.00;0.00;;;;;;;15.41;49.33;102357.81;5050395;28;20091;-76
2022/05/28 06:31:10;;;;;;;0.40;0.40;;;;;;;15.50;49.17;102363.03;5050048;28;20039;-75
2022/05/28 06:33:37;;;;;;;0.00;0.00;;;;;;;15.63;49.24;102357.50;5050530;28;20036;-76
2022/05/28 06:36:05;;;;;;;0.00;0.00;;;;;;;15.82;49.21;102353.59;5050519;28;20025;-75
2022/05/28 06:38:32;;;;;;;0.00;0.00;;;;;;;15.83;48.37;102360.72;5050156;28;20029;-76
2022/05/28 06:40:59;;;;;;;0.00;0.00;;;;;;;15.99;48.42;102355.09;5049613;28;20665;-76
2022/05/28 06:43:27;;;;;;;3.53;2.00;;;;;;;16.25;48.91;102353.72;5050613;28;20025;-76
2022/05/28 06:45:53;;;;;;;0.10;0.10;;;;;;;16.41;48.31;102355.19;5050397;28;20075;-76
2022/05/28 06:48:19;;;;;;;0.10;0.10;;;;;;;16.57;47.17;102361.06;5050519;28;20053;-76
2022/05/28 06:51:16;;;;;;;0.00;0.00;;;;;;;16.64;46.90;102364.53;5049411;28;20032;-76
2022/05/28 06:56:17;;;;;;;11.90;2.65;;;;;;;16.79;45.98;102364.19;5108666;27;20385;-76
2022/05/28 06:58:44;;;;;;;0.00;0.00;;;;;;;16.94;46.64;102367.47;5108582;28;20088;-76
2022/05/28 07:01:10;;;;;;;0.00;0.00;;;;;;;16.82;46.53;102363.22;5107845;28;20501;-76
2022/05/28 07:03:39;;;;;;;0.00;0.00;;;;;;;16.94;46.79;102357.63;5109176;28;20028;-76
2022/05/28 07:06:05;;;;;;;0.03;0.03;;;;;;;17.11;47.30;102356.41;5108374;28;20027;-76
2022/05/28 07:08:32;;;;;;;0.00;0.00;;;;;;;17.20;46.71;102360.66;5109590;28;20448;-77
2022/05/28 07:11:01;;;;;;;0.00;0.00;;;;;;;17.53;46.58;102366.09;5108273;28;20050;-76
2022/05/28 07:13:28;;;;;;;0.10;0.10;;;;;;;17.57;46.39;102363.31;5109647;28;20031;-76
2022/05/28 07:15:54;;;;;;;0.00;0.00;;;;;;;17.50;44.30;102372.41;5108421;28;20028;-76
2022/05/28 07:18:21;;;;;;;0.10;0.10;;;;;;;17.58;43.94;102372.22;5108498;28;20545;-76
2022/05/28 07:20:48;;;;;;;0.20;0.20;;;;;;;17.42;42.94;102369.94;5107607;28;20382;-76
2022/05/28 07:23:19;;;;;;;0.13;0.13;;;;;;;17.39;42.67;102372.66;5107110;28;20035;-76
2022/05/28 07:25:46;;;;;;;0.00;0.00;;;;;;;17.42;43.86;102369.94;5108023;28;20379;-76
2022/05/28 07:28:30;;;;;;;0.00;0.00;;;;;;;17.33;44.16;102364.78;5108100;28;20032;-76
2022/05/28 07:33:39;;;;;;;0.00;0.00;;;;;;;17.33;43.43;102363.91;5108811;27;20753;-76
2022/05/28 07:36:08;;;;;;;0.00;0.00;;;;;;;17.23;42.78;102357.88;5109239;28;20513;-76
2022/05/28 07:38:35;;;;;;;0.00;0.00;;;;;;;17.37;43.33;102371.84;5107312;28;20032;-76
2022/05/28 07:41:04;;;;;;;0.00;0.00;;;;;;;17.41;42.90;102367.28;5107607;28;20731;-76
2022/05/28 07:43:30;;;;;;;0.10;0.10;;;;;;;17.45;42.14;102377.00;5108378;28;20741;-76
2022/05/28 07:45:56;;;;;;;0.10;0.10;;;;;;;17.65;42.33;102367.59;5108703;28;20401;-76
2022/05/28 07:48:22;;;;;;;0.00;0.00;;;;;;;17.85;42.27;102372.44;5108319;28;20059;-76
2022/05/28 07:50:48;;;;;;;0.22;0.22;;;;;;;17.83;42.43;102368.91;5107639;28;20489;-76
2022/05/28 07:53:15;;;;;;;0.50;0.50;;;;;;;17.70;42.23;102379.94;5108032;28;20401;-76
2022/05/28 07:55:41;;;;;;;0.00;0.00;;;;;;;17.51;43.42;102375.97;5108314;28;20039;-76
2022/05/28 07:58:10;;;;;;;0.10;0.10;;;;;;;17.28;43.52;102378.31;5108179;28;20115;-76
2022/05/28 08:00:40;;;;;;;0.10;0.10;;;;;;;17.21;44.32;102376.69;5108062;28;20481;-76
2022/05/28 08:03:07;;;;;;;0.10;0.10;;;;;;;17.19;44.69;102385.66;5107728;28;20027;-76
2022/05/28 08:05:34;;;;;;;2.63;1.33;;;;;;;17.28;45.02;102375.63;5108038;28;20393;-76
2022/05/28 08:08:00;;;;;;;0.08;0.08;;;;;;;17.38;44.89;102373.56;5107721;28;20039;-76
2022/05/28 08:10:26;;;;;;;0.00;0.00;;;;;;;17.52;45.56;102367.00;5107319;28;20047;-76
2022/05/28 08:12:52;;;;;;;13.00;0.90;;;;;;;17.65;43.27;102371.16;5107526;28;20028;-76
2022/05/28 08:15:19;;;;;;;0.00;0.00;;;;;;;17.69;42.82;102372.81;5108010;28;20032;-76
2022/05/28 08:17:45;;;;;;;0.05;0.05;;;;;;;17.63;43.26;102378.34;5107889;28;20028;-76
2022/05/28 08:20:11;;;;;;;0.00;0.00;;;;;;;17.78;43.25;102367.25;5107819;28;20401;-76
2022/05/28 08:23:08;;;;;;;0.00;0.00;;;;;;;17.74;43.01;102370.91;5106751;28;20412;-77
2022/05/28 08:25:23;;;;;;;0.00;0.00;;;;;;;17.34;41.55;102371.91;5107737;28;20036;-76
2022/05/28 08:27:49;;;;;;;0.00;0.00;;;;;;;17.19;40.43;102373.16;5107671;28;20027;-76
2022/05/28 08:30:15;;;;;;;0.20;0.20;;;;;;;17.09;40.38;102372.47;5107463;28;20038;-77
2022/05/28 08:32:42;;;;;;;0.20;0.20;;;;;;;17.05;38.96;102373.47;5106708;28;20032;-76
2022/05/28 08:35:08;;;;;;;0.05;0.05;;;;;;;17.33;39.44;102374.63;5107255;28;20032;-76
2022/05/28 08:37:34;;;;;;;0.15;0.15;;;;;;;17.44;39.80;102376.09;5107252;28;20106;-76
2022/05/28 08:40:00;;;;;;;0.00;0.00;;;;;;;17.57;38.92;102389.22;5108016;28;20043;-76
2022/05/28 08:42:27;;;;;;;0.10;0.10;;;;;;;17.81;39.25;102381.47;5107340;28;20034;-76
2022/05/28 08:44:56;;;;;;;0.05;0.05;;;;;;;18.04;39.20;102380.91;5094530;28;20040;-76
2022/05/28 08:47:28;;;;;;;0.00;0.00;;;;;;;18.17;38.90;102378.75;5093691;28;20140;-76
2022/05/28 08:49:58;;;;;;;0.10;0.10;;;;;;;18.13;38.93;102383.34;5093958;28;20093;-76
2022/05/28 08:52:32;;;;;;;0.05;0.05;;;;;;;17.93;38.66;102375.78;5093120;28;20081;-76
2022/05/28 08:55:06;;;;;;;0.00;0.00;;;;;;;17.93;38.02;102382.03;5094123;28;20489;-75
2022/05/28 08:57:53;;;;;;;0.00;0.00;;;;;;;18.03;38.18;102384.50;5093844;28;20089;-76
2022/05/28 09:00:43;;;;;;;0.08;0.08;;;;;;;18.10;37.85;102378.91;5093576;28;20052;-77
2022/05/28 09:03:22;;;;;;;0.00;0.00;;;;;;;18.26;38.05;102383.88;5093585;28;20028;-76
2022/05/28 09:08:33;;;;;;;0.15;0.15;;;;;;;18.12;35.22;102384.28;5108454;27;20383;-76
2022/05/28 09:11:05;;;;;;;0.08;0.08;;;;;;;18.07;34.54;102384.38;5107776;28;20758;-76
2022/05/28 09:16:30;;;;;;;0.00;0.00;;;;;;;18.05;34.80;102386.22;5074793;28;20357;-78
2022/05/28 09:19:03;;;;;;;0.10;0.10;;;;;;;18.15;34.71;102388.66;5077186;28;20044;-78
2022/05/28 09:21:29;;;;;;;0.05;0.05;;;;;;;18.10;35.71;102376.25;5077497;28;20111;-78
2022/05/28 09:32:22;;;;;;;0.10;0.10;;;;;;;18.57;34.61;102377.66;5068335;28;20887;-75
2022/05/28 09:35:15;;;;;;;0.00;0.00;;;;;;;18.69;34.50;102387.13;5068457;28;20036;-76
2022/05/28 09:37:56;;;;;;;0.00;0.00;;;;;;;18.82;35.39;102371.56;5067916;28;20107;-76
2022/05/28 09:46:33;;;;;;;0.00;0.00;;;;;;;18.78;35.22;102376.13;5116169;27;20403;-78
2022/05/28 09:51:36;;;;;;;0.00;0.00;;;;;;;18.79;35.93;102382.38;5075446;28;20602;-80
2022/05/28 09:54:21;;;;;;;0.10;0.10;;;;;;;18.90;36.25;102377.56;5075946;28;20039;-78
2022/05/28 09:57:00;;;;;;;0.10;0.10;;;;;;;19.06;36.91;102372.63;5077646;28;20063;-76
2022/05/28 09:59:32;;;;;;;0.10;0.10;;;;;;;19.05;36.14;102374.44;5077507;28;20037;-78
2022/05/28 10:02:07;;;;;;;0.10;0.10;;;;;;;19.05;34.14;102371.75;5076860;28;20052;-78
2022/05/28 10:04:54;;;;;;;0.10;0.10;;;;;;;18.98;35.50;102374.66;5076778;28;20032;-77
2022/05/28 10:10:30;;;;;;;0.10;0.10;;;;;;;19.29;36.42;102361.16;5109130;27;20726;-76
2022/05/28 10:13:16;;;;;;;0.15;0.15;;;;;;;19.39;34.58;102370.66;5107668;28;20042;-76
2022/05/28 10:15:49;;;;;;;0.05;0.05;;;;;;;19.36;37.60;102372.56;5108481;28;20042;-77
2022/05/28 10:18:20;;;;;;;0.00;0.00;;;;;;;19.28;35.95;102362.06;5109057;28;20106;-77
2022/05/28 10:23:53;;;;;;;0.10;0.10;;;;;;;19.34;35.41;102382.47;5096781;28;20117;-78
2022/05/28 10:26:22;;;;;;;0.00;0.00;;;;;;;19.43;35.53;102360.69;5098339;28;20091;-78
2022/05/28 10:28:51;;;;;;;0.40;0.40;;;;;;;19.36;35.63;102368.06;5096807;28;20051;-77
2022/05/28 10:31:31;;;;;;;0.00;0.00;;;;;;;19.48;35.51;102360.53;5096838;28;20442;-77
2022/05/28 10:33:58;;;;;;;0.00;0.00;;;;;;;19.49;36.65;102359.59;5097537;28;20048;-78
2022/05/28 10:36:27;;;;;;;0.00;0.00;;;;;;;19.30;36.76;102365.59;5096416;28;20024;-78
2022/05/28 10:39:05;;;;;;;0.05;0.05;;;;;;;19.28;37.28;102361.16;5096113;28;20032;-77
2022/05/28 10:41:34;;;;;;;0.00;0.00;;;;;;;19.13;38.03;102378.66;5096025;28;20441;-78
2022/05/28 10:44:00;;;;;;;0.10;0.10;;;;;;;19.11;37.93;102372.47;5096886;28;20088;-78
2022/05/28 10:46:44;;;;;;;0.10;0.10;;;;;;;19.28;36.71;102364.75;5096314;28;20035;-78
2022/05/28 10:57:47;;;;;;;0.10;0.10;;;;;;;19.48;36.22;102369.47;5067884;28;20472;-76
2022/05/28 11:00:19;;;;;;;0.10;0.10;;;;;;;19.33;35.71;102362.78;5068691;28;20055;-76
2022/05/28 11:03:05;;;;;;;;;;;;;;;19.61;35.99;102366.38;5050228;28;20431;-76
2022/05/28 11:08:51;;;;;;;0.30;0.30;;;;;;;19.77;34.09;102359.53;5068132;28;20398;-76
2022/05/28 11:11:37;;;;;;;0.05;0.05;;;;;;;19.76;34.50;102359.59;5066947;28;20052;-76
2022/05/28 11:20:00;;;;;;;1.55;1.35;;;;;;;19.98;33.88;102357.94;5109579;27;20132;-76
2022/05/28 11:25:22;;;;;;;0.47;0.47;;;;;;;20.03;35.08;102350.56;5068582;28;20906;-75
2022/05/28 11:28:03;;;;;;;0.40;0.40;;;;;;;20.00;35.44;102353.38;5067619;28;20039;-76
2022/05/28 11:30:42;;;;;;;0.00;0.00;;;;;;;19.80;34.80;102347.78;5067970;28;20471;-76
2022/05/28 11:33:19;;;;;;;0.13;0.13;;;;;;;19.60;34.64;102344.00;5067595;28;20513;-76
2022/05/28 11:35:55;;;;;;;0.00;0.00;;;;;;;19.57;35.22;102338.72;5068548;28;20124;-76
2022/05/28 11:38:31;;;;;;;0.00;0.00;;;;;;;19.69;34.65;102354.44;5068484;28;20398;-77
2022/05/28 11:41:22;;;;;;;0.10;0.10;;;;;;;19.63;32.50;102346.56;5068495;28;20055;-77
2022/05/28 11:43:59;;;;;;;0.00;0.00;;;;;;;19.82;34.10;102343.25;5067842;28;20021;-76
2022/05/28 11:46:35;;;;;;;0.00;0.00;;;;;;;19.93;34.75;102342.91;5068466;28;20029;-76
2022/05/28 11:51:46;;;;;;;0.10;0.10;;;;;;;20.24;35.01;102350.75;5067843;28;20638;-76
2022/05/28 11:57:09;;;;;;;0.10;0.10;;;;;;;20.19;35.61;102341.97;5068196;28;20379;-76
2022/05/28 11:59:37;;;;;;;0.43;0.43;;;;;;;19.81;35.90;102352.25;5067998;28;20033;-76
2022/05/28 12:02:11;;;;;;;0.17;0.17;;;;;;;19.88;36.41;102343.94;5067206;28;20039;-76
2022/05/28 12:04:41;;;;;;;0.00;0.00;;;;;;;20.02;35.86;102339.88;5067802;28;20029;-76
2022/05/28 12:07:13;;;;;;;0.15;0.15;;;;;;;20.12;35.86;102345.81;5068567;28;20055;-77
2022/05/28 12:09:44;;;;;;;0.38;0.38;;;;;;;20.27;36.56;102339.84;5067844;28;20025;-76
2022/05/28 12:12:24;;;;;;;0.00;0.00;;;;;;;20.36;34.66;102335.94;5067506;28;20028;-76
2022/05/28 12:15:21;;;;;;;0.00;0.00;;;;;;;20.47;34.37;102335.53;5068119;28;20554;-76
2022/05/28 12:20:58;;;;;;;0.28;0.28;;;;;;;20.57;33.68;102331.53;5088697;28;20389;-75
2022/05/28 12:29:09;;;;;;;0.75;0.75;;;;;;;19.88;34.47;102321.53;5068932;28;20391;-78
2022/05/28 12:31:35;;;;;;;15.23;3.50;;;;;;;19.99;35.28;102319.34;5067773;28;20036;-78
2022/05/28 12:34:02;;;;;;;0.10;0.10;;;;;;;20.16;34.41;102320.53;5068988;28;20116;-76
2022/05/28 12:36:49;;;;;;;0.00;0.00;;;;;;;20.38;33.74;102315.22;5068019;28;20033;-76
2022/05/28 12:39:42;;;;;;;0.30;0.30;;;;;;;20.54;32.74;102310.13;5068679;28;20051;-77
2022/05/28 12:42:20;;;;;;;0.00;0.00;;;;;;;20.76;33.23;102322.78;5067737;28;20029;-76
2022/05/28 12:44:51;;;;;;;0.00;0.00;;;;;;;20.81;33.77;102318.09;5068932;28;20025;-77
2022/05/28 12:47:28;;;;;;;0.05;0.05;;;;;;;20.33;32.88;102323.47;5068376;28;20445;-77
2022/05/28 12:58:28;;;;;;;0.00;0.00;;;;;;;20.82;32.78;102307.28;5075161;28;20420;-78
2022/05/28 13:00:59;;;;;;;0.00;0.00;;;;;;;20.85;32.95;102303.56;5076466;28;20045;-78
2022/05/28 13:03:36;;;;;;;0.00;0.00;;;;;;;20.89;32.28;102309.72;5077530;28;20310;-79